createdAt,value
2018-12-04T00:04:25.523Z,29.53
2018-12-04T00:14:29.807Z,22.40
2018-12-04T00:24:34.200Z,23.70
2018-12-04T00:34:38.190Z,18.67
2018-12-04T00:44:42.484Z,16.80
2018-12-04T00:54:46.948Z,15.07
2018-12-04T01:04:51.453Z,17.07
2018-12-04T01:14:56.491Z,19.93
2018-12-04T01:25:00.822Z,17.33
2018-12-04T01:35:04.948Z,26.83
2018-12-04T01:45:09.727Z,18.17
2018-12-04T01:55:14.127Z,18.10
2018-12-04T02:05:18.111Z,14.47
2018-12-04T02:15:22.021Z,14.50
2018-12-04T02:25:26.355Z,14.50
2018-12-04T02:35:30.821Z,15.00
2018-12-04T02:45:34.899Z,12.80
2018-12-04T02:55:39.325Z,14.57
2018-12-04T03:05:43.789Z,15.20
2018-12-04T03:15:47.787Z,14.93
2018-12-04T03:25:52.262Z,16.33
2018-12-04T03:35:56.691Z,15.50
2018-12-04T03:46:01.303Z,14.83
2018-12-04T03:56:05.791Z,14.03
2018-12-04T04:06:10.509Z,14.00
2018-12-04T04:16:14.911Z,12.70
2018-12-04T04:26:19.376Z,13.17
2018-12-04T04:36:23.372Z,11.50
2018-12-04T04:46:27.447Z,10.40
2018-12-04T04:56:31.897Z,10.17
2018-12-04T05:06:36.558Z,11.77
2018-12-04T05:16:40.544Z,12.50
2018-12-04T05:26:44.422Z,17.77
2018-12-04T05:36:48.860Z,10.53
2018-12-04T05:46:53.343Z,11.07
2018-12-04T05:56:57.721Z,12.47
2018-12-04T06:07:01.784Z,16.00
2018-12-04T06:17:06.122Z,12.57
2018-12-04T06:27:10.593Z,15.30
2018-12-04T06:37:14.810Z,10.63
2018-12-04T06:47:19.251Z,13.93
2018-12-04T06:57:23.765Z,11.80
2018-12-04T07:07:28.420Z,10.83
2018-12-04T07:17:32.786Z,12.17
2018-12-04T07:27:36.884Z,22.73
2018-12-04T07:37:41.478Z,22.63
2018-12-04T07:47:46.027Z,26.47
2018-12-04T07:57:50.173Z,21.10
2018-12-04T08:07:54.227Z,25.57
2018-12-04T08:17:59.880Z,19.97
2018-12-04T08:28:03.939Z,22.33
2018-12-04T08:38:07.861Z,27.83
2018-12-04T08:48:12.321Z,17.87
2018-12-04T08:58:16.899Z,16.67
2018-12-04T09:08:21.579Z,15.63
2018-12-04T09:18:26.072Z,16.77
2018-12-04T09:28:30.644Z,20.57
2018-12-04T09:38:35.267Z,18.10
2018-12-04T09:48:40.320Z,19.17
2018-12-04T09:58:44.854Z,16.60
2018-12-04T10:08:49.429Z,16.57
2018-12-04T10:18:54.224Z,16.07
2018-12-04T10:28:58.376Z,18.63
2018-12-04T10:39:02.327Z,23.67
2018-12-04T10:49:07.827Z,19.20
2018-12-04T10:59:12.300Z,20.83
2018-12-04T11:09:16.329Z,18.50
2018-12-04T11:19:20.683Z,16.43
2018-12-04T11:29:24.961Z,17.43
2018-12-04T11:39:29.244Z,17.47
2018-12-04T11:49:33.387Z,14.27
2018-12-04T11:59:37.233Z,13.43
2018-12-04T12:09:41.454Z,15.57
2018-12-04T12:19:45.633Z,13.67
2018-12-04T12:29:49.459Z,16.23
2018-12-04T12:39:53.632Z,13.43
2018-12-04T12:49:57.513Z,12.93
2018-12-04T13:00:01.332Z,12.70
2018-12-04T13:10:06.367Z,16.77
2018-12-04T13:20:10.174Z,15.87
2018-12-04T13:30:14.253Z,14.50
2018-12-04T13:40:18.511Z,14.97
2018-12-04T13:50:22.881Z,12.83
2018-12-04T14:00:26.705Z,15.30
2018-12-04T14:10:30.929Z,15.30
2018-12-04T14:20:35.122Z,15.87
2018-12-04T14:30:39.128Z,14.37
2018-12-04T14:40:43.185Z,15.00
2018-12-04T14:50:47.020Z,15.17
2018-12-04T15:00:50.823Z,16.20
2018-12-04T15:10:55.197Z,12.53
2018-12-04T15:20:59.603Z,10.97
2018-12-04T15:31:03.628Z,9.63
2018-12-04T15:41:07.630Z,10.57
2018-12-04T15:51:11.750Z,11.90
2018-12-04T16:01:16.071Z,11.20
2018-12-04T16:11:20.360Z,10.20
2018-12-04T16:21:24.261Z,8.90
2018-12-04T16:31:28.421Z,9.30
2018-12-04T16:41:32.853Z,8.67
2018-12-04T16:51:36.936Z,9.70
2018-12-04T17:01:41.005Z,13.30
2018-12-04T17:11:45.469Z,9.20
2018-12-04T17:21:49.823Z,9.00
2018-12-04T17:31:53.965Z,8.83
2018-12-04T17:41:57.853Z,9.73
2018-12-04T17:52:01.583Z,14.67
2018-12-04T18:02:07.200Z,12.10
2018-12-04T18:12:13.493Z,10.40
2018-12-04T18:22:20.300Z,13.10
2018-12-04T18:32:24.231Z,10.57
2018-12-04T18:42:28.321Z,13.50
2018-12-04T18:52:32.395Z,9.07
2018-12-04T19:02:37.021Z,11.03
2018-12-04T19:12:41.359Z,13.17
2018-12-04T19:22:45.503Z,12.10
2018-12-04T19:32:49.821Z,11.43
2018-12-04T19:42:54.064Z,8.43
2018-12-04T19:52:58.239Z,8.33
2018-12-04T20:03:02.535Z,8.83
2018-12-04T20:13:06.702Z,9.83
2018-12-04T20:23:11.112Z,9.37
2018-12-04T20:33:15.914Z,15.07
2018-12-04T20:43:20.336Z,12.37
2018-12-04T20:53:24.365Z,12.07
2018-12-04T21:03:28.757Z,11.47
2018-12-04T21:13:33.084Z,9.37
2018-12-04T21:23:37.586Z,10.10
2018-12-04T21:33:46.962Z,11.90
2018-12-04T21:43:58.497Z,13.33
2018-12-04T21:54:02.341Z,10.87
2018-12-04T22:04:06.446Z,12.97
2018-12-04T22:14:10.668Z,14.97
2018-12-04T22:24:14.894Z,11.97
2018-12-04T22:34:19.145Z,12.07
2018-12-04T22:44:22.973Z,9.67
2018-12-04T22:54:26.735Z,12.93
2018-12-04T23:04:31.835Z,12.70
2018-12-04T23:14:36.063Z,11.67
2018-12-04T23:24:39.879Z,14.27
2018-12-04T23:34:43.939Z,11.97
2018-12-04T23:44:47.975Z,12.97
2018-12-04T23:54:52.060Z,11.07
